sensor_id;sensor_type;location;lat;lon;timestamp;P1;durP1;ratioP1;P2;durP2;ratioP2
62092;SDS011;59819;52.976;6.846;2022-09-06T00:00:13;8.75;;;7.63;;
62092;SDS011;59819;52.976;6.846;2022-09-06T00:02:40;10.13;;;8.07;;
62092;SDS011;59819;52.976;6.846;2022-09-06T00:05:07;9.07;;;8.10;;
62092;SDS011;59819;52.976;6.846;2022-09-06T00:07:34;8.95;;;8.02;;
62092;SDS011;59819;52.976;6.846;2022-09-06T00:10:00;9.40;;;8.13;;
62092;SDS011;59819;52.976;6.846;2022-09-06T00:12:26;9.82;;;8.80;;
62092;SDS011;59819;52.976;6.846;2022-09-06T00:14:53;8.98;;;8.13;;
62092;SDS011;59819;52.976;6.846;2022-09-06T00:17:19;10.02;;;8.95;;
62092;SDS011;59819;52.976;6.846;2022-09-06T00:19:45;10.50;;;8.63;;
62092;SDS011;59819;52.976;6.846;2022-09-06T00:22:11;11.90;;;9.23;;
62092;SDS011;59819;52.976;6.846;2022-09-06T00:24:37;9.18;;;8.32;;
62092;SDS011;59819;52.976;6.846;2022-09-06T00:27:03;9.60;;;8.70;;
62092;SDS011;59819;52.976;6.846;2022-09-06T00:29:30;9.90;;;8.93;;
62092;SDS011;59819;52.976;6.846;2022-09-06T00:31:56;9.93;;;9.02;;
62092;SDS011;59819;52.976;6.846;2022-09-06T00:34:23;9.73;;;8.68;;
62092;SDS011;59819;52.976;6.846;2022-09-06T00:36:49;9.32;;;8.52;;
62092;SDS011;59819;52.976;6.846;2022-09-06T00:39:15;9.88;;;8.85;;
62092;SDS011;59819;52.976;6.846;2022-09-06T00:41:42;11.73;;;9.27;;
62092;SDS011;59819;52.976;6.846;2022-09-06T00:44:08;10.35;;;9.35;;
62092;SDS011;59819;52.976;6.846;2022-09-06T00:46:34;10.13;;;9.13;;
62092;SDS011;59819;52.976;6.846;2022-09-06T00:49:03;12.05;;;9.73;;
62092;SDS011;59819;52.976;6.846;2022-09-06T00:51:30;10.23;;;9.23;;
62092;SDS011;59819;52.976;6.846;2022-09-06T00:53:58;11.05;;;9.00;;
62092;SDS011;59819;52.976;6.846;2022-09-06T00:56:27;11.40;;;9.30;;
62092;SDS011;59819;52.976;6.846;2022-09-06T00:58:55;9.98;;;9.00;;
62092;SDS011;59819;52.976;6.846;2022-09-06T01:01:21;9.85;;;8.95;;
62092;SDS011;59819;52.976;6.846;2022-09-06T01:03:47;10.35;;;8.85;;
62092;SDS011;59819;52.976;6.846;2022-09-06T01:16:42;10.88;;;9.80;;
62092;SDS011;59819;52.976;6.846;2022-09-06T01:21:43;10.40;;;9.20;;
62092;SDS011;59819;52.976;6.846;2022-09-06T01:29:32;9.98;;;9.00;;
62092;SDS011;59819;52.976;6.846;2022-09-06T01:34:57;9.90;;;8.82;;
62092;SDS011;59819;52.976;6.846;2022-09-06T01:37:25;9.98;;;8.90;;
62092;SDS011;59819;52.976;6.846;2022-09-06T01:39:51;12.55;;;9.73;;
62092;SDS011;59819;52.976;6.846;2022-09-06T01:42:21;12.63;;;8.93;;
62092;SDS011;59819;52.976;6.846;2022-09-06T01:44:55;10.55;;;9.48;;
62092;SDS011;59819;52.976;6.846;2022-09-06T01:47:28;10.15;;;9.18;;
62092;SDS011;59819;52.976;6.846;2022-09-06T01:57:44;10.90;;;9.80;;
62092;SDS011;59819;52.976;6.846;2022-09-06T02:00:17;12.48;;;10.40;;
62092;SDS011;59819;52.976;6.846;2022-09-06T02:07:51;10.77;;;9.68;;
62092;SDS011;59819;52.976;6.846;2022-09-06T02:10:28;10.73;;;9.73;;
62092;SDS011;59819;52.976;6.846;2022-09-06T02:12:56;11.27;;;10.25;;
62092;SDS011;59819;52.976;6.846;2022-09-06T02:15:25;11.32;;;10.27;;
62092;SDS011;59819;52.976;6.846;2022-09-06T02:18:02;11.02;;;9.95;;
62092;SDS011;59819;52.976;6.846;2022-09-06T02:20:29;10.68;;;9.68;;
62092;SDS011;59819;52.976;6.846;2022-09-06T02:22:58;14.98;;;10.38;;
62092;SDS011;59819;52.976;6.846;2022-09-06T02:25:27;11.93;;;10.82;;
62092;SDS011;59819;52.976;6.846;2022-09-06T02:27:54;11.88;;;10.80;;
62092;SDS011;59819;52.976;6.846;2022-09-06T02:30:20;10.75;;;9.85;;
62092;SDS011;59819;52.976;6.846;2022-09-06T02:32:52;11.23;;;10.23;;
62092;SDS011;59819;52.976;6.846;2022-09-06T02:35:20;13.95;;;10.85;;
62092;SDS011;59819;52.976;6.846;2022-09-06T02:37:46;11.65;;;10.60;;
62092;SDS011;59819;52.976;6.846;2022-09-06T02:40:12;10.95;;;9.95;;
62092;SDS011;59819;52.976;6.846;2022-09-06T02:42:38;10.98;;;9.98;;
62092;SDS011;59819;52.976;6.846;2022-09-06T02:45:06;11.23;;;10.13;;
62092;SDS011;59819;52.976;6.846;2022-09-06T02:47:32;11.18;;;10.18;;
62092;SDS011;59819;52.976;6.846;2022-09-06T02:49:58;10.40;;;9.60;;
62092;SDS011;59819;52.976;6.846;2022-09-06T02:52:24;11.55;;;10.52;;
62092;SDS011;59819;52.976;6.846;2022-09-06T02:54:51;12.93;;;10.55;;
62092;SDS011;59819;52.976;6.846;2022-09-06T02:57:17;12.05;;;10.85;;
62092;SDS011;59819;52.976;6.846;2022-09-06T02:59:43;12.15;;;11.13;;
62092;SDS011;59819;52.976;6.846;2022-09-06T03:02:10;12.25;;;11.10;;
62092;SDS011;59819;52.976;6.846;2022-09-06T03:04:36;12.23;;;11.18;;
62092;SDS011;59819;52.976;6.846;2022-09-06T03:07:02;11.95;;;10.93;;
62092;SDS011;59819;52.976;6.846;2022-09-06T03:09:28;12.45;;;11.25;;
62092;SDS011;59819;52.976;6.846;2022-09-06T03:11:54;13.50;;;12.38;;
62092;SDS011;59819;52.976;6.846;2022-09-06T03:14:20;11.98;;;10.98;;
62092;SDS011;59819;52.976;6.846;2022-09-06T03:16:46;11.63;;;10.63;;
62092;SDS011;59819;52.976;6.846;2022-09-06T03:19:12;12.63;;;11.43;;
62092;SDS011;59819;52.976;6.846;2022-09-06T03:21:38;12.30;;;11.20;;
62092;SDS011;59819;52.976;6.846;2022-09-06T03:24:04;12.35;;;10.90;;
62092;SDS011;59819;52.976;6.846;2022-09-06T03:26:30;12.75;;;11.65;;
62092;SDS011;59819;52.976;6.846;2022-09-06T03:28:57;12.80;;;11.63;;
62092;SDS011;59819;52.976;6.846;2022-09-06T03:31:23;12.57;;;11.43;;
62092;SDS011;59819;52.976;6.846;2022-09-06T03:33:49;12.98;;;11.70;;
62092;SDS011;59819;52.976;6.846;2022-09-06T03:36:15;12.18;;;11.13;;
62092;SDS011;59819;52.976;6.846;2022-09-06T03:38:41;12.88;;;11.60;;
62092;SDS011;59819;52.976;6.846;2022-09-06T03:41:07;13.07;;;11.88;;
62092;SDS011;59819;52.976;6.846;2022-09-06T03:43:33;12.90;;;11.60;;
62092;SDS011;59819;52.976;6.846;2022-09-06T03:45:59;12.07;;;11.05;;
62092;SDS011;59819;52.976;6.846;2022-09-06T03:48:27;11.95;;;10.85;;
62092;SDS011;59819;52.976;6.846;2022-09-06T03:50:54;13.77;;;11.00;;
62092;SDS011;59819;52.976;6.846;2022-09-06T03:53:21;12.60;;;11.48;;
62092;SDS011;59819;52.976;6.846;2022-09-06T03:55:48;12.27;;;11.18;;
62092;SDS011;59819;52.976;6.846;2022-09-06T03:58:14;13.07;;;11.85;;
62092;SDS011;59819;52.976;6.846;2022-09-06T04:00:41;13.35;;;12.13;;
62092;SDS011;59819;52.976;6.846;2022-09-06T04:03:07;12.63;;;11.40;;
62092;SDS011;59819;52.976;6.846;2022-09-06T04:05:33;13.65;;;12.30;;
62092;SDS011;59819;52.976;6.846;2022-09-06T04:07:59;13.40;;;12.10;;
62092;SDS011;59819;52.976;6.846;2022-09-06T04:10:26;13.93;;;12.52;;
62092;SDS011;59819;52.976;6.846;2022-09-06T04:12:52;13.65;;;12.35;;
62092;SDS011;59819;52.976;6.846;2022-09-06T04:15:18;13.70;;;12.38;;
62092;SDS011;59819;52.976;6.846;2022-09-06T04:17:45;13.25;;;12.05;;
62092;SDS011;59819;52.976;6.846;2022-09-06T04:20:14;13.63;;;12.18;;
62092;SDS011;59819;52.976;6.846;2022-09-06T04:22:40;13.38;;;12.07;;
62092;SDS011;59819;52.976;6.846;2022-09-06T04:25:06;13.75;;;12.45;;
62092;SDS011;59819;52.976;6.846;2022-09-06T04:27:33;14.35;;;12.95;;
62092;SDS011;59819;52.976;6.846;2022-09-06T04:29:59;13.32;;;12.07;;
62092;SDS011;59819;52.976;6.846;2022-09-06T04:32:25;14.52;;;13.20;;
62092;SDS011;59819;52.976;6.846;2022-09-06T04:34:51;14.60;;;13.18;;
62092;SDS011;59819;52.976;6.846;2022-09-06T04:37:17;13.82;;;12.40;;
62092;SDS011;59819;52.976;6.846;2022-09-06T04:39:47;14.00;;;12.70;;
62092;SDS011;59819;52.976;6.846;2022-09-06T04:42:13;14.27;;;12.90;;
62092;SDS011;59819;52.976;6.846;2022-09-06T04:44:39;14.07;;;12.68;;
62092;SDS011;59819;52.976;6.846;2022-09-06T04:47:07;15.70;;;12.77;;
62092;SDS011;59819;52.976;6.846;2022-09-06T04:49:36;14.48;;;13.15;;
62092;SDS011;59819;52.976;6.846;2022-09-06T04:52:02;14.05;;;12.73;;
62092;SDS011;59819;52.976;6.846;2022-09-06T04:54:28;15.68;;;12.48;;
62092;SDS011;59819;52.976;6.846;2022-09-06T04:56:54;14.13;;;12.85;;
62092;SDS011;59819;52.976;6.846;2022-09-06T04:59:20;15.05;;;13.75;;
62092;SDS011;59819;52.976;6.846;2022-09-06T05:01:46;14.68;;;13.27;;
62092;SDS011;59819;52.976;6.846;2022-09-06T05:04:12;14.60;;;13.20;;
62092;SDS011;59819;52.976;6.846;2022-09-06T05:06:38;13.85;;;12.65;;
62092;SDS011;59819;52.976;6.846;2022-09-06T05:09:05;15.13;;;13.73;;
62092;SDS011;59819;52.976;6.846;2022-09-06T05:11:32;14.65;;;13.23;;
62092;SDS011;59819;52.976;6.846;2022-09-06T05:13:58;14.52;;;13.13;;
62092;SDS011;59819;52.976;6.846;2022-09-06T05:16:24;15.30;;;13.73;;
62092;SDS011;59819;52.976;6.846;2022-09-06T05:18:50;14.95;;;13.23;;
62092;SDS011;59819;52.976;6.846;2022-09-06T05:21:16;15.48;;;13.90;;
62092;SDS011;59819;52.976;6.846;2022-09-06T05:23:42;16.05;;;14.43;;
62092;SDS011;59819;52.976;6.846;2022-09-06T05:26:08;15.43;;;13.93;;
62092;SDS011;59819;52.976;6.846;2022-09-06T05:28:35;15.68;;;14.38;;
62092;SDS011;59819;52.976;6.846;2022-09-06T05:31:05;15.30;;;13.93;;
62092;SDS011;59819;52.976;6.846;2022-09-06T05:33:31;15.35;;;13.95;;
62092;SDS011;59819;52.976;6.846;2022-09-06T05:35:57;15.25;;;13.75;;
62092;SDS011;59819;52.976;6.846;2022-09-06T05:38:23;15.50;;;14.00;;
62092;SDS011;59819;52.976;6.846;2022-09-06T05:40:49;16.75;;;15.18;;
62092;SDS011;59819;52.976;6.846;2022-09-06T05:43:16;16.60;;;15.00;;
62092;SDS011;59819;52.976;6.846;2022-09-06T05:45:42;16.60;;;14.90;;
62092;SDS011;59819;52.976;6.846;2022-09-06T05:48:08;17.95;;;16.25;;
62092;SDS011;59819;52.976;6.846;2022-09-06T05:50:34;16.65;;;14.95;;
62092;SDS011;59819;52.976;6.846;2022-09-06T05:53:00;17.45;;;15.85;;
62092;SDS011;59819;52.976;6.846;2022-09-06T05:55:26;18.73;;;17.05;;
62092;SDS011;59819;52.976;6.846;2022-09-06T05:57:52;18.50;;;16.73;;
62092;SDS011;59819;52.976;6.846;2022-09-06T06:00:18;19.40;;;17.60;;
62092;SDS011;59819;52.976;6.846;2022-09-06T06:02:47;20.02;;;17.05;;
62092;SDS011;59819;52.976;6.846;2022-09-06T06:05:14;18.95;;;17.10;;
62092;SDS011;59819;52.976;6.846;2022-09-06T06:07:40;19.30;;;17.42;;
62092;SDS011;59819;52.976;6.846;2022-09-06T06:10:06;20.05;;;18.05;;
62092;SDS011;59819;52.976;6.846;2022-09-06T06:12:32;20.00;;;17.98;;
62092;SDS011;59819;52.976;6.846;2022-09-06T06:14:58;21.52;;;19.33;;
62092;SDS011;59819;52.976;6.846;2022-09-06T06:17:24;21.27;;;19.17;;
62092;SDS011;59819;52.976;6.846;2022-09-06T06:19:50;22.52;;;20.23;;
62092;SDS011;59819;52.976;6.846;2022-09-06T06:22:17;22.20;;;19.83;;
62092;SDS011;59819;52.976;6.846;2022-09-06T06:24:43;22.30;;;20.00;;
62092;SDS011;59819;52.976;6.846;2022-09-06T06:27:09;22.67;;;20.58;;
62092;SDS011;59819;52.976;6.846;2022-09-06T06:29:35;23.92;;;21.63;;
62092;SDS011;59819;52.976;6.846;2022-09-06T06:32:01;22.60;;;20.45;;
62092;SDS011;59819;52.976;6.846;2022-09-06T06:34:27;23.10;;;20.80;;
62092;SDS011;59819;52.976;6.846;2022-09-06T06:36:53;23.15;;;20.83;;
62092;SDS011;59819;52.976;6.846;2022-09-06T06:39:19;23.63;;;21.40;;
62092;SDS011;59819;52.976;6.846;2022-09-06T06:41:47;23.45;;;21.25;;
62092;SDS011;59819;52.976;6.846;2022-09-06T06:44:14;21.75;;;19.67;;
62092;SDS011;59819;52.976;6.846;2022-09-06T06:46:40;21.10;;;19.10;;
62092;SDS011;59819;52.976;6.846;2022-09-06T06:49:06;21.25;;;19.33;;
62092;SDS011;59819;52.976;6.846;2022-09-06T06:51:33;20.55;;;18.38;;
62092;SDS011;59819;52.976;6.846;2022-09-06T06:54:01;22.33;;;19.13;;
62092;SDS011;59819;52.976;6.846;2022-09-06T06:56:28;21.10;;;18.95;;
62092;SDS011;59819;52.976;6.846;2022-09-06T06:58:55;20.88;;;18.77;;
62092;SDS011;59819;52.976;6.846;2022-09-06T07:01:22;20.83;;;18.60;;
62092;SDS011;59819;52.976;6.846;2022-09-06T07:03:48;20.65;;;18.67;;
62092;SDS011;59819;52.976;6.846;2022-09-06T07:06:15;20.70;;;18.80;;
62092;SDS011;59819;52.976;6.846;2022-09-06T07:08:41;21.33;;;19.23;;
62092;SDS011;59819;52.976;6.846;2022-09-06T07:11:08;21.77;;;19.67;;
62092;SDS011;59819;52.976;6.846;2022-09-06T07:13:35;22.35;;;19.98;;
62092;SDS011;59819;52.976;6.846;2022-09-06T07:16:17;22.08;;;19.77;;
62092;SDS011;59819;52.976;6.846;2022-09-06T07:18:44;23.48;;;21.13;;
62092;SDS011;59819;52.976;6.846;2022-09-06T07:21:11;23.02;;;20.88;;
62092;SDS011;59819;52.976;6.846;2022-09-06T07:23:37;23.83;;;21.38;;
62092;SDS011;59819;52.976;6.846;2022-09-06T07:26:03;23.80;;;21.40;;
62092;SDS011;59819;52.976;6.846;2022-09-06T07:28:30;24.00;;;21.80;;
62092;SDS011;59819;52.976;6.846;2022-09-06T07:30:56;24.45;;;22.10;;
62092;SDS011;59819;52.976;6.846;2022-09-06T07:33:22;23.45;;;21.00;;
62092;SDS011;59819;52.976;6.846;2022-09-06T07:35:58;23.58;;;20.83;;
62092;SDS011;59819;52.976;6.846;2022-09-06T07:38:25;25.02;;;21.83;;
62092;SDS011;59819;52.976;6.846;2022-09-06T07:40:55;24.55;;;22.25;;
62092;SDS011;59819;52.976;6.846;2022-09-06T07:43:21;24.85;;;22.40;;
62092;SDS011;59819;52.976;6.846;2022-09-06T07:45:48;24.48;;;22.13;;
62092;SDS011;59819;52.976;6.846;2022-09-06T07:48:14;23.85;;;21.60;;
62092;SDS011;59819;52.976;6.846;2022-09-06T07:50:40;24.60;;;22.17;;
62092;SDS011;59819;52.976;6.846;2022-09-06T07:53:06;24.92;;;22.50;;
62092;SDS011;59819;52.976;6.846;2022-09-06T07:55:32;23.58;;;21.38;;
62092;SDS011;59819;52.976;6.846;2022-09-06T07:57:58;24.27;;;21.67;;
62092;SDS011;59819;52.976;6.846;2022-09-06T08:00:25;22.48;;;20.20;;
62092;SDS011;59819;52.976;6.846;2022-09-06T08:02:51;23.67;;;21.23;;
62092;SDS011;59819;52.976;6.846;2022-09-06T08:05:17;22.85;;;20.63;;
62092;SDS011;59819;52.976;6.846;2022-09-06T08:07:43;22.70;;;20.40;;
62092;SDS011;59819;52.976;6.846;2022-09-06T08:10:09;22.33;;;20.23;;
62092;SDS011;59819;52.976;6.846;2022-09-06T08:12:35;22.15;;;19.92;;
62092;SDS011;59819;52.976;6.846;2022-09-06T08:15:01;21.50;;;19.35;;
62092;SDS011;59819;52.976;6.846;2022-09-06T08:17:27;22.17;;;20.00;;
62092;SDS011;59819;52.976;6.846;2022-09-06T08:19:59;21.85;;;19.75;;
62092;SDS011;59819;52.976;6.846;2022-09-06T08:22:25;21.35;;;19.23;;
62092;SDS011;59819;52.976;6.846;2022-09-06T08:24:51;20.83;;;18.83;;
62092;SDS011;59819;52.976;6.846;2022-09-06T08:27:17;19.77;;;17.77;;
62092;SDS011;59819;52.976;6.846;2022-09-06T08:29:43;20.15;;;18.10;;
62092;SDS011;59819;52.976;6.846;2022-09-06T08:32:09;19.27;;;17.33;;
62092;SDS011;59819;52.976;6.846;2022-09-06T08:34:35;18.98;;;17.17;;
62092;SDS011;59819;52.976;6.846;2022-09-06T08:37:01;18.77;;;16.98;;
62092;SDS011;59819;52.976;6.846;2022-09-06T08:39:27;20.30;;;18.02;;
62092;SDS011;59819;52.976;6.846;2022-09-06T08:41:54;18.60;;;16.88;;
62092;SDS011;59819;52.976;6.846;2022-09-06T08:46:54;17.73;;;16.13;;
62092;SDS011;59819;52.976;6.846;2022-09-06T08:49:22;18.60;;;16.80;;
62092;SDS011;59819;52.976;6.846;2022-09-06T08:54:39;17.40;;;15.70;;
62092;SDS011;59819;52.976;6.846;2022-09-06T08:59:44;17.15;;;15.25;;
62092;SDS011;59819;52.976;6.846;2022-09-06T09:04:42;17.95;;;15.40;;
62092;SDS011;59819;52.976;6.846;2022-09-06T09:07:15;18.83;;;15.75;;
62092;SDS011;59819;52.976;6.846;2022-09-06T09:09:42;16.75;;;15.18;;
62092;SDS011;59819;52.976;6.846;2022-09-06T09:12:09;16.25;;;14.88;;
62092;SDS011;59819;52.976;6.846;2022-09-06T09:14:36;16.88;;;15.30;;
62092;SDS011;59819;52.976;6.846;2022-09-06T09:17:25;15.90;;;14.27;;
62092;SDS011;59819;52.976;6.846;2022-09-06T09:19:50;16.25;;;14.65;;
62092;SDS011;59819;52.976;6.846;2022-09-06T09:22:16;15.95;;;14.23;;
62092;SDS011;59819;52.976;6.846;2022-09-06T09:24:43;15.55;;;14.05;;
62092;SDS011;59819;52.976;6.846;2022-09-06T09:27:10;15.85;;;14.15;;
62092;SDS011;59819;52.976;6.846;2022-09-06T09:34:44;16.42;;;14.32;;
62092;SDS011;59819;52.976;6.846;2022-09-06T09:37:11;14.57;;;13.05;;
62092;SDS011;59819;52.976;6.846;2022-09-06T09:39:38;15.15;;;13.65;;
62092;SDS011;59819;52.976;6.846;2022-09-06T09:42:06;14.93;;;13.43;;
62092;SDS011;59819;52.976;6.846;2022-09-06T09:44:33;14.90;;;13.60;;
62092;SDS011;59819;52.976;6.846;2022-09-06T09:47:00;15.35;;;13.80;;
62092;SDS011;59819;52.976;6.846;2022-09-06T09:49:34;17.02;;;15.32;;
62092;SDS011;59819;52.976;6.846;2022-09-06T09:52:10;16.17;;;14.63;;
62092;SDS011;59819;52.976;6.846;2022-09-06T09:54:41;15.18;;;13.65;;
62092;SDS011;59819;52.976;6.846;2022-09-06T09:57:09;15.73;;;14.23;;
62092;SDS011;59819;52.976;6.846;2022-09-06T10:02:15;15.20;;;12.63;;
62092;SDS011;59819;52.976;6.846;2022-09-06T10:04:45;15.70;;;13.05;;
62092;SDS011;59819;52.976;6.846;2022-09-06T10:07:15;14.52;;;11.95;;
62092;SDS011;59819;52.976;6.846;2022-09-06T10:09:42;13.63;;;12.25;;
62092;SDS011;59819;52.976;6.846;2022-09-06T10:12:12;13.02;;;11.73;;
62092;SDS011;59819;52.976;6.846;2022-09-06T10:14:42;13.88;;;12.05;;
62092;SDS011;59819;52.976;6.846;2022-09-06T10:17:16;13.02;;;11.52;;
62092;SDS011;59819;52.976;6.846;2022-09-06T10:19:43;13.57;;;12.18;;
62092;SDS011;59819;52.976;6.846;2022-09-06T10:27:08;13.32;;;12.13;;
62092;SDS011;59819;52.976;6.846;2022-09-06T10:29:45;12.45;;;11.15;;
62092;SDS011;59819;52.976;6.846;2022-09-06T10:40:10;13.07;;;11.82;;
62092;SDS011;59819;52.976;6.846;2022-09-06T10:42:46;11.75;;;10.60;;
62092;SDS011;59819;52.976;6.846;2022-09-06T10:47:55;14.75;;;11.10;;
62092;SDS011;59819;52.976;6.846;2022-09-06T10:50:27;13.48;;;10.52;;
62092;SDS011;59819;52.976;6.846;2022-09-06T10:53:05;11.57;;;10.55;;
62092;SDS011;59819;52.976;6.846;2022-09-06T10:55:32;11.95;;;10.55;;
62092;SDS011;59819;52.976;6.846;2022-09-06T10:57:58;11.23;;;10.13;;
62092;SDS011;59819;52.976;6.846;2022-09-06T11:00:31;10.93;;;9.63;;
62092;SDS011;59819;52.976;6.846;2022-09-06T11:02:59;11.05;;;9.90;;
62092;SDS011;59819;52.976;6.846;2022-09-06T11:05:28;11.98;;;9.95;;
62092;SDS011;59819;52.976;6.846;2022-09-06T11:07:56;10.40;;;9.48;;
62092;SDS011;59819;52.976;6.846;2022-09-06T11:10:29;9.77;;;8.80;;
62092;SDS011;59819;52.976;6.846;2022-09-06T11:15:25;11.07;;;8.80;;
62092;SDS011;59819;52.976;6.846;2022-09-06T11:17:57;9.60;;;8.80;;
62092;SDS011;59819;52.976;6.846;2022-09-06T11:28:08;10.30;;;9.40;;
62092;SDS011;59819;52.976;6.846;2022-09-06T11:30:35;10.52;;;9.52;;
62092;SDS011;59819;52.976;6.846;2022-09-06T11:33:05;9.13;;;8.05;;
62092;SDS011;59819;52.976;6.846;2022-09-06T11:35:41;8.32;;;7.00;;
62092;SDS011;59819;52.976;6.846;2022-09-06T11:40:42;8.25;;;7.55;;
62092;SDS011;59819;52.976;6.846;2022-09-06T11:43:11;8.77;;;7.97;;
62092;SDS011;59819;52.976;6.846;2022-09-06T11:53:21;9.38;;;7.70;;
62092;SDS011;59819;52.976;6.846;2022-09-06T11:55:54;9.40;;;7.93;;
62092;SDS011;59819;52.976;6.846;2022-09-06T12:06:23;7.88;;;6.20;;
62092;SDS011;59819;52.976;6.846;2022-09-06T12:08:50;8.13;;;6.63;;
62092;SDS011;59819;52.976;6.846;2022-09-06T12:13:57;6.63;;;5.90;;
62092;SDS011;59819;52.976;6.846;2022-09-06T12:17:16;5.88;;;5.32;;
62092;SDS011;59819;52.976;6.846;2022-09-06T12:19:37;8.85;;;6.38;;
62092;SDS011;59819;52.976;6.846;2022-09-06T12:21:56;8.13;;;6.25;;
62092;SDS011;59819;52.976;6.846;2022-09-06T12:27:15;5.00;;;4.57;;
62092;SDS011;59819;52.976;6.846;2022-09-06T12:33:07;5.97;;;4.45;;
62092;SDS011;59819;52.976;6.846;2022-09-06T12:35:18;6.35;;;4.80;;
62092;SDS011;59819;52.976;6.846;2022-09-06T12:38:04;6.28;;;4.40;;
62092;SDS011;59819;52.976;6.846;2022-09-06T12:40:35;4.65;;;4.25;;
62092;SDS011;59819;52.976;6.846;2022-09-06T12:43:02;5.25;;;4.75;;
62092;SDS011;59819;52.976;6.846;2022-09-06T12:45:29;5.18;;;4.68;;
62092;SDS011;59819;52.976;6.846;2022-09-06T12:48:03;5.15;;;4.75;;
62092;SDS011;59819;52.976;6.846;2022-09-06T12:50:29;6.40;;;5.32;;
62092;SDS011;59819;52.976;6.846;2022-09-06T12:52:59;6.45;;;5.20;;
62092;SDS011;59819;52.976;6.846;2022-09-06T12:55:29;6.28;;;5.00;;
62092;SDS011;59819;52.976;6.846;2022-09-06T12:57:57;8.20;;;5.40;;
62092;SDS011;59819;52.976;6.846;2022-09-06T13:00:24;8.02;;;5.00;;
62092;SDS011;59819;52.976;6.846;2022-09-06T13:05:19;5.20;;;4.70;;
62092;SDS011;59819;52.976;6.846;2022-09-06T13:07:49;5.85;;;4.65;;
62092;SDS011;59819;52.976;6.846;2022-09-06T13:10:18;6.03;;;4.32;;
62092;SDS011;59819;52.976;6.846;2022-09-06T13:12:46;3.97;;;3.60;;
62092;SDS011;59819;52.976;6.846;2022-09-06T13:15:19;6.43;;;4.10;;
62092;SDS011;59819;52.976;6.846;2022-09-06T13:17:46;4.57;;;3.83;;
62092;SDS011;59819;52.976;6.846;2022-09-06T13:20:13;4.25;;;3.92;;
62092;SDS011;59819;52.976;6.846;2022-09-06T13:22:44;7.35;;;4.05;;
62092;SDS011;59819;52.976;6.846;2022-09-06T13:25:15;4.40;;;4.00;;
62092;SDS011;59819;52.976;6.846;2022-09-06T13:27:43;4.18;;;3.65;;
62092;SDS011;59819;52.976;6.846;2022-09-06T13:30:20;5.22;;;3.85;;
62092;SDS011;59819;52.976;6.846;2022-09-06T13:32:54;4.10;;;3.50;;
62092;SDS011;59819;52.976;6.846;2022-09-06T13:35:23;6.80;;;4.13;;
62092;SDS011;59819;52.976;6.846;2022-09-06T13:37:50;4.43;;;4.03;;
62092;SDS011;59819;52.976;6.846;2022-09-06T13:40:35;4.32;;;3.92;;
62092;SDS011;59819;52.976;6.846;2022-09-06T13:43:01;5.65;;;4.30;;
62092;SDS011;59819;52.976;6.846;2022-09-06T13:45:29;4.70;;;4.30;;
62092;SDS011;59819;52.976;6.846;2022-09-06T13:47:57;5.22;;;4.70;;
62092;SDS011;59819;52.976;6.846;2022-09-06T13:50:23;5.75;;;4.95;;
62092;SDS011;59819;52.976;6.846;2022-09-06T13:52:51;5.57;;;4.95;;
62092;SDS011;59819;52.976;6.846;2022-09-06T13:55:17;10.25;;;5.35;;
62092;SDS011;59819;52.976;6.846;2022-09-06T13:57:45;6.32;;;5.43;;
62092;SDS011;59819;52.976;6.846;2022-09-06T14:00:11;5.68;;;4.90;;
62092;SDS011;59819;52.976;6.846;2022-09-06T14:02:40;6.35;;;5.07;;
62092;SDS011;59819;52.976;6.846;2022-09-06T14:05:07;5.60;;;5.10;;
62092;SDS011;59819;52.976;6.846;2022-09-06T14:07:33;7.20;;;5.20;;
62092;SDS011;59819;52.976;6.846;2022-09-06T14:09:59;6.15;;;4.97;;
62092;SDS011;59819;52.976;6.846;2022-09-06T14:12:25;5.55;;;5.05;;
62092;SDS011;59819;52.976;6.846;2022-09-06T14:14:51;6.30;;;5.30;;
62092;SDS011;59819;52.976;6.846;2022-09-06T14:17:18;8.23;;;5.28;;
62092;SDS011;59819;52.976;6.846;2022-09-06T14:19:44;6.05;;;5.45;;
62092;SDS011;59819;52.976;6.846;2022-09-06T14:22:10;5.55;;;5.05;;
62092;SDS011;59819;52.976;6.846;2022-09-06T14:24:37;14.60;;;6.00;;
62092;SDS011;59819;52.976;6.846;2022-09-06T14:27:03;5.78;;;5.32;;
62092;SDS011;59819;52.976;6.846;2022-09-06T14:29:31;5.38;;;4.90;;
62092;SDS011;59819;52.976;6.846;2022-09-06T14:31:58;4.93;;;4.43;;
62092;SDS011;59819;52.976;6.846;2022-09-06T14:34:24;4.82;;;4.40;;
62092;SDS011;59819;52.976;6.846;2022-09-06T14:36:50;9.00;;;4.80;;
62092;SDS011;59819;52.976;6.846;2022-09-06T14:39:17;5.28;;;4.78;;
62092;SDS011;59819;52.976;6.846;2022-09-06T14:41:43;12.63;;;4.85;;
62092;SDS011;59819;52.976;6.846;2022-09-06T14:44:09;5.50;;;4.90;;
62092;SDS011;59819;52.976;6.846;2022-09-06T14:46:35;4.93;;;4.47;;
62092;SDS011;59819;52.976;6.846;2022-09-06T14:49:03;6.22;;;4.65;;
62092;SDS011;59819;52.976;6.846;2022-09-06T14:51:34;4.82;;;4.28;;
62092;SDS011;59819;52.976;6.846;2022-09-06T14:54:02;6.93;;;4.47;;
62092;SDS011;59819;52.976;6.846;2022-09-06T14:56:28;6.05;;;4.50;;
62092;SDS011;59819;52.976;6.846;2022-09-06T14:58:55;4.53;;;4.18;;
62092;SDS011;59819;52.976;6.846;2022-09-06T15:01:22;7.72;;;4.40;;
62092;SDS011;59819;52.976;6.846;2022-09-06T15:03:55;5.20;;;4.70;;
62092;SDS011;59819;52.976;6.846;2022-09-06T15:06:23;5.30;;;4.80;;
62092;SDS011;59819;52.976;6.846;2022-09-06T15:08:49;5.68;;;4.68;;
62092;SDS011;59819;52.976;6.846;2022-09-06T15:11:26;5.47;;;4.68;;
62092;SDS011;59819;52.976;6.846;2022-09-06T15:13:54;4.90;;;4.25;;
62092;SDS011;59819;52.976;6.846;2022-09-06T15:16:20;7.18;;;4.60;;
62092;SDS011;59819;52.976;6.846;2022-09-06T15:18:46;4.80;;;4.30;;
62092;SDS011;59819;52.976;6.846;2022-09-06T15:21:13;5.05;;;4.57;;
62092;SDS011;59819;52.976;6.846;2022-09-06T15:23:39;5.82;;;4.50;;
62092;SDS011;59819;52.976;6.846;2022-09-06T15:26:07;5.82;;;4.30;;
62092;SDS011;59819;52.976;6.846;2022-09-06T15:28:36;4.50;;;4.10;;
62092;SDS011;59819;52.976;6.846;2022-09-06T15:31:03;4.57;;;3.95;;
62092;SDS011;59819;52.976;6.846;2022-09-06T15:33:30;5.90;;;3.70;;
62092;SDS011;59819;52.976;6.846;2022-09-06T15:35:57;4.00;;;3.45;;
62092;SDS011;59819;52.976;6.846;2022-09-06T15:38:24;5.05;;;3.80;;
62092;SDS011;59819;52.976;6.846;2022-09-06T15:40:50;3.47;;;3.17;;
62092;SDS011;59819;52.976;6.846;2022-09-06T15:43:16;5.45;;;3.10;;
62092;SDS011;59819;52.976;6.846;2022-09-06T15:45:47;4.63;;;3.63;;
62092;SDS011;59819;52.976;6.846;2022-09-06T15:48:14;4.60;;;3.45;;
62092;SDS011;59819;52.976;6.846;2022-09-06T15:50:40;4.72;;;3.30;;
62092;SDS011;59819;52.976;6.846;2022-09-06T15:53:06;7.28;;;4.18;;
62092;SDS011;59819;52.976;6.846;2022-09-06T15:55:32;8.05;;;3.28;;
62092;SDS011;59819;52.976;6.846;2022-09-06T15:58:17;3.22;;;2.90;;
62092;SDS011;59819;52.976;6.846;2022-09-06T16:00:43;5.55;;;3.00;;
62092;SDS011;59819;52.976;6.846;2022-09-06T16:03:09;4.38;;;3.50;;
62092;SDS011;59819;52.976;6.846;2022-09-06T16:05:36;3.40;;;3.10;;
62092;SDS011;59819;52.976;6.846;2022-09-06T16:08:02;4.80;;;3.40;;
62092;SDS011;59819;52.976;6.846;2022-09-06T16:10:28;4.57;;;3.03;;
62092;SDS011;59819;52.976;6.846;2022-09-06T16:12:54;3.85;;;3.20;;
62092;SDS011;59819;52.976;6.846;2022-09-06T16:15:20;3.97;;;3.45;;
62092;SDS011;59819;52.976;6.846;2022-09-06T16:17:46;3.78;;;3.30;;
62092;SDS011;59819;52.976;6.846;2022-09-06T16:20:13;5.70;;;3.55;;